Time;durP1;ratioP1;P1;durP2;ratioP2;P2;SDS_P1;SDS_P2;PMS_P1;PMS_P2;Temp;Humidity;BMP_temperature;BMP_pressure;BME280_temperature;BME280_humidity;BME280_pressure;Samples;Min_cycle;Max_cycle;Signal;HPM_P1;HPM_P2
2022/10/12 00:02:17;;;;;;;2.90;1.80;;;6.20;99.90;;;6.99;100.00;98937.13;5002902;28;20565;-82
2022/10/12 00:04:46;;;;;;;7.17;2.50;;;6.20;99.90;;;7.10;100.00;98934.38;5004618;28;20471;-82
2022/10/12 00:07:15;;;;;;;5.80;2.00;;;6.20;99.90;;;7.11;100.00;98929.97;5000976;28;20545;-83
2022/10/12 00:09:46;;;;;;;2.13;1.63;;;6.30;99.90;;;7.08;100.00;98933.66;5002299;28;20578;-82
2022/10/12 00:12:14;;;;;;;8.10;2.00;;;6.30;99.90;;;7.08;100.00;98931.06;5002532;28;20589;-82
2022/10/12 00:14:43;;;;;;;4.23;2.07;;;6.20;99.90;;;7.06;100.00;98936.44;5004237;28;20563;-82
2022/10/12 00:17:12;;;;;;;5.50;1.40;;;6.10;99.90;;;7.10;100.00;98944.75;5001231;28;21053;-82
2022/10/12 00:19:41;;;;;;;3.63;2.03;;;6.20;99.90;;;7.08;100.00;98937.09;5001691;28;20464;-82
2022/10/12 00:22:09;;;;;;;6.17;1.73;;;6.10;99.90;;;7.05;100.00;98937.38;5001254;28;20546;-82
2022/10/12 00:24:38;;;;;;;10.20;2.37;;;6.10;99.90;;;7.01;100.00;98938.63;5004573;28;20459;-82
2022/10/12 00:27:12;;;;;;;4.97;1.57;;;6.10;99.90;;;7.00;100.00;98933.59;5004100;28;21132;-82
2022/10/12 00:29:40;;;;;;;4.67;1.90;;;6.10;99.90;;;7.03;100.00;98938.50;5002757;28;20454;-82
2022/10/12 00:32:09;;;;;;;4.30;1.53;;;6.10;99.90;;;7.03;100.00;98935.91;5001130;28;20547;-82
2022/10/12 00:34:38;;;;;;;5.57;1.97;;;6.10;99.90;;;7.03;100.00;98933.28;5003360;28;20459;-83
2022/10/12 00:37:06;;;;;;;3.87;1.60;;;6.10;99.90;;;7.02;100.00;98931.66;5000824;28;20526;-82
2022/10/12 00:39:35;;;;;;;8.10;1.90;;;6.00;99.90;;;7.01;100.00;98933.41;5002695;28;21023;-82
2022/10/12 00:42:04;;;;;;;4.20;2.13;;;6.00;99.90;;;6.92;100.00;98925.66;5002859;28;20473;-82
2022/10/12 00:44:44;;;;;;;7.63;1.77;;;6.00;99.90;;;6.88;100.00;98927.72;5002131;28;20462;-82
2022/10/12 00:47:25;;;;;;;2.73;1.50;;;5.90;99.90;;;6.89;100.00;98934.56;5002605;28;20494;-82
2022/10/12 00:50:02;;;;;;;5.83;1.80;;;5.90;99.90;;;6.91;100.00;98942.22;5002585;28;20466;-82
2022/10/12 00:52:40;;;;;;;5.90;3.10;;;5.90;99.90;;;6.86;100.00;98944.44;5002501;28;20553;-82
2022/10/12 00:55:15;;;;;;;3.10;1.53;;;5.80;99.90;;;6.87;100.00;98936.47;5000371;28;20467;-82
2022/10/12 00:57:45;;;;;;;8.93;1.80;;;5.90;99.90;;;6.83;100.00;98942.13;5000465;28;20466;-82
2022/10/12 01:00:19;;;;;;;3.80;2.03;;;5.80;99.90;;;6.73;100.00;98936.13;4998950;28;20990;-82
2022/10/12 01:02:51;;;;;;;4.10;1.57;;;5.80;99.90;;;6.69;100.00;98937.38;5002480;28;20506;-82
2022/10/12 01:05:21;;;;;;;2.10;1.40;;;5.80;99.90;;;6.74;100.00;98940.34;5001512;28;20565;-83
2022/10/12 01:07:50;;;;;;;4.30;1.50;;;5.90;99.90;;;6.70;100.00;98933.81;5001413;28;20601;-82
2022/10/12 01:10:18;;;;;;;2.87;1.50;;;5.90;99.90;;;6.70;100.00;98944.22;5001494;28;20910;-82
2022/10/12 01:12:49;;;;;;;5.07;2.30;;;5.80;99.90;;;6.67;100.00;98939.28;5000534;28;20495;-82
2022/10/12 01:15:22;;;;;;;2.73;1.43;;;5.70;99.90;;;6.69;100.00;98932.16;4997731;28;20910;-82
2022/10/12 01:18:04;;;;;;;2.90;1.30;;;5.70;99.90;;;6.69;100.00;98935.59;5002312;28;21131;-82
2022/10/12 01:21:05;;;;;;;2.33;1.87;;;5.80;99.90;;;6.71;100.00;98935.44;5002074;28;20463;-82
2022/10/12 01:24:20;;;;;;;4.53;1.97;;;5.80;99.90;;;6.69;100.00;98932.16;5001662;28;21027;-82
2022/10/12 01:27:25;;;;;;;2.60;1.40;;;5.80;99.90;;;6.69;100.00;98932.16;5006649;28;21020;-82
2022/10/12 01:30:23;;;;;;;4.00;1.63;;;5.80;99.90;;;6.67;100.00;98928.88;5000310;28;20557;-82
2022/10/12 01:33:32;;;;;;;4.20;1.50;;;5.80;99.90;;;6.64;100.00;98929.16;5001438;28;20455;-82
2022/10/12 01:36:09;;;;;;;5.67;2.00;;;5.70;99.90;;;6.58;100.00;98930.56;5002045;28;20448;-82
2022/10/12 01:38:51;;;;;;;8.33;1.60;;;5.60;99.90;;;6.55;100.00;98925.63;5002750;28;20451;-82
2022/10/12 01:41:27;;;;;;;5.10;1.70;;;5.60;99.90;;;6.52;100.00;98921.56;5001541;28;20443;-82
2022/10/12 01:43:57;;;;;;;3.13;1.57;;;5.50;99.90;;;6.44;100.00;98918.81;5003926;28;21043;-82
2022/10/12 01:46:45;;;;;;;3.93;1.80;;;5.50;99.90;;;6.45;100.00;98915.28;5002363;28;20457;-82
2022/10/12 01:49:19;;;;;;;3.87;1.60;;;5.50;99.90;;;6.47;100.00;98912.50;5002764;28;20568;-82
2022/10/12 01:52:16;;;;;;;2.80;1.57;;;5.50;99.90;;;6.49;100.00;98919.19;5002649;28;20538;-82
2022/10/12 01:55:17;;;;;;;3.83;1.70;;;5.50;99.90;;;6.36;100.00;98916.09;5001960;28;20555;-82
2022/10/12 01:57:59;;;;;;;2.83;1.60;;;5.40;99.90;;;6.24;100.00;98906.81;5001618;28;20984;-82
2022/10/12 02:00:31;;;;;;;2.13;1.40;;;5.30;99.90;;;6.30;100.00;98906.25;4999702;28;21084;-82
2022/10/12 02:03:16;;;;;;;4.97;1.97;;;5.30;99.90;;;6.22;100.00;98900.94;5003437;28;20528;-82
2022/10/12 02:05:52;;;;;;;2.10;1.73;;;5.40;99.90;;;6.26;100.00;98904.88;5000972;28;21012;-82
2022/10/12 02:08:30;;;;;;;5.07;1.60;;;5.40;99.90;;;6.24;100.00;98901.63;5004637;28;20588;-82
2022/10/12 02:11:06;;;;;;;5.17;1.87;;;5.40;99.90;;;6.30;100.00;98895.88;5005017;28;20488;-82
2022/10/12 02:13:43;;;;;;;7.40;2.17;;;5.40;99.90;;;6.33;100.00;98886.97;5007371;28;20572;-82
2022/10/12 02:16:15;;;;;;;4.70;2.40;;;5.40;99.90;;;6.26;100.00;98881.53;5003964;28;20530;-82
2022/10/12 02:18:51;;;;;;;5.50;1.80;;;5.30;99.90;;;6.26;100.00;98885.88;5003672;28;20820;-82
2022/10/12 02:21:27;;;;;;;6.00;1.47;;;5.30;99.90;;;6.15;100.00;98894.66;5007535;28;20482;-82
2022/10/12 02:24:00;;;;;;;3.00;1.70;;;5.20;99.90;;;6.16;100.00;98895.47;5006681;28;20431;-82
2022/10/12 02:26:34;;;;;;;7.37;2.00;;;5.20;99.90;;;6.11;100.00;98889.88;5004260;28;20500;-81
2022/10/12 02:29:10;;;;;;;4.03;1.60;;;5.20;99.90;;;6.16;100.00;98887.69;5005188;28;20486;-82
2022/10/12 02:31:47;;;;;;;2.60;1.30;;;5.20;99.90;;;6.15;100.00;98884.25;5004241;28;20557;-82
2022/10/12 02:34:23;;;;;;;9.70;1.43;;;5.20;99.90;;;6.18;100.00;98886.56;5003459;28;20997;-82
2022/10/12 02:37:02;;;;;;;3.80;2.00;;;5.30;99.90;;;6.17;100.00;98879.75;5005253;28;20488;-82
2022/10/12 02:39:40;;;;;;;5.87;1.77;;;5.30;99.90;;;6.14;100.00;98887.84;5003162;28;20566;-82
2022/10/12 02:42:13;;;;;;;4.00;2.23;;;5.20;99.90;;;6.10;100.00;98883.88;5004794;28;20534;-82
2022/10/12 02:44:44;;;;;;;2.40;1.43;;;5.20;99.90;;;6.12;100.00;98891.50;5004523;28;20815;-82
2022/10/12 02:47:16;;;;;;;4.10;1.80;;;5.20;99.90;;;6.12;100.00;98886.31;5003988;28;20506;-81
2022/10/12 02:49:48;;;;;;;2.00;1.40;;;5.20;99.90;;;6.11;100.00;98879.50;5004083;28;20533;-82
2022/10/12 02:52:16;;;;;;;2.07;1.20;;;5.20;99.90;;;5.95;100.00;98880.03;5002254;28;20882;-82
2022/10/12 02:54:46;;;;;;;2.10;1.70;;;5.20;99.90;;;5.96;100.00;98866.13;5002043;28;20904;-82
2022/10/12 02:57:15;;;;;;;2.80;1.60;;;5.10;99.90;;;5.99;100.00;98871.03;5005873;28;20508;-82
2022/10/12 02:59:43;;;;;;;3.17;1.53;;;5.20;99.90;;;5.96;100.00;98868.72;5004519;28;20555;-82
2022/10/12 03:02:13;;;;;;;1.97;1.10;;;5.10;99.90;;;5.96;100.00;98869.53;5002268;28;20478;-82
2022/10/12 03:04:42;;;;;;;2.47;1.53;;;5.10;99.90;;;5.94;100.00;98868.00;5003057;28;20475;-83
2022/10/12 03:07:12;;;;;;;6.80;1.60;;;5.00;99.90;;;5.94;100.00;98878.41;5003010;28;20585;-82
2022/10/12 03:09:42;;;;;;;3.13;1.53;;;4.90;99.90;;;5.92;100.00;98875.13;5005009;28;20508;-84
2022/10/12 03:12:11;;;;;;;8.30;1.73;;;5.00;99.90;;;5.94;100.00;98875.81;5004420;28;20586;-83
2022/10/12 03:14:39;;;;;;;1.87;1.50;;;5.00;99.90;;;5.97;100.00;98878.16;5002722;28;20468;-83
2022/10/12 03:17:08;;;;;;;2.27;1.40;;;5.10;99.90;;;5.95;100.00;98872.25;5001412;28;20949;-83
2022/10/12 03:19:38;;;;;;;5.17;1.70;;;5.00;99.90;;;5.93;100.00;98864.63;5002215;28;21283;-82
2022/10/12 03:22:07;;;;;;;1.80;1.50;;;5.10;99.90;;;5.93;100.00;98866.41;5002708;28;20471;-83
2022/10/12 03:24:37;;;;;;;5.13;1.67;;;5.10;99.90;;;5.96;100.00;98866.94;5001898;28;20532;-83
2022/10/12 03:27:05;;;;;;;2.67;1.97;;;5.10;99.90;;;5.92;100.00;98868.16;5002973;28;20956;-83
2022/10/12 03:29:34;;;;;;;8.53;1.70;;;5.00;99.90;;;5.88;100.00;98868.56;5003977;28;20596;-84
2022/10/12 03:32:02;;;;;;;2.53;1.57;;;4.90;99.90;;;5.90;100.00;98861.50;5003223;28;20969;-83
2022/10/12 03:34:31;;;;;;;12.67;1.70;;;4.90;99.90;;;5.89;100.00;98862.44;5005002;28;20482;-83
2022/10/12 03:37:00;;;;;;;7.20;2.40;;;5.00;99.90;;;5.89;100.00;98867.63;5005737;28;20851;-84
2022/10/12 03:39:29;;;;;;;5.33;2.30;;;5.00;99.90;;;5.85;100.00;98874.00;5003238;28;20582;-82
2022/10/12 03:41:59;;;;;;;2.00;1.47;;;4.90;99.90;;;5.80;100.00;98877.00;5003497;28;20450;-81
2022/10/12 03:44:28;;;;;;;3.03;1.63;;;5.00;99.90;;;5.82;100.00;98884.66;5004223;28;20999;-81
2022/10/12 03:46:57;;;;;;;4.00;1.70;;;4.90;99.90;;;5.82;100.00;98879.47;4999575;28;20520;-83
2022/10/12 03:49:26;;;;;;;2.47;1.97;;;5.00;99.90;;;5.86;100.00;98886.06;5000832;28;21016;-82
2022/10/12 03:51:55;;;;;;;9.17;1.63;;;4.90;99.90;;;5.88;100.00;98879.78;5000453;28;20558;-82
2022/10/12 03:54:24;;;;;;;3.10;1.67;;;5.00;99.90;;;5.91;100.00;98882.09;5001126;28;20478;-81
2022/10/12 03:56:53;;;;;;;5.23;1.70;;;5.10;99.90;;;5.92;100.00;98880.31;5002556;28;20483;-81
2022/10/12 03:59:23;;;;;;;1.67;1.37;;;5.10;99.90;;;5.93;100.00;98876.78;5004017;28;20565;-81
2022/10/12 04:01:51;;;;;;;3.87;2.20;;;5.20;99.90;;;5.94;100.00;98875.81;5004196;28;20558;-81
2022/10/12 04:04:20;;;;;;;2.37;1.50;;;5.20;99.90;;;5.95;100.00;98874.84;5003740;28;20480;-81
2022/10/12 04:06:48;;;;;;;2.47;1.40;;;5.20;99.90;;;5.99;100.00;98874.44;5004129;28;20455;-81
2022/10/12 04:09:17;;;;;;;8.57;2.10;;;5.20;99.90;;;6.04;100.00;98880.03;5006347;28;20904;-85
2022/10/12 04:11:46;;;;;;;2.50;1.63;;;5.20;99.90;;;6.07;100.00;98876.38;5003961;28;20505;-83
2022/10/12 04:14:15;;;;;;;1.67;1.40;;;5.20;99.90;;;6.13;100.00;98873.22;5002499;28;20945;-81
2022/10/12 04:16:45;;;;;;;8.87;2.40;;;5.30;99.90;;;6.14;100.00;98869.66;5003031;28;20984;-81
2022/10/12 04:19:15;;;;;;;2.40;1.70;;;5.40;99.90;;;6.16;100.00;98872.94;5003202;28;20455;-90
2022/10/12 04:21:43;;;;;;;3.53;1.60;;;5.30;99.90;;;6.18;100.00;98871.00;5001383;28;20662;-81
2022/10/12 04:24:12;;;;;;;5.20;2.23;;;5.30;99.90;;;6.21;100.00;98869.94;5000001;28;20953;-80
2022/10/12 04:26:41;;;;;;;3.03;2.23;;;5.30;99.90;;;6.20;100.00;98874.28;4998558;28;20495;-80
2022/10/12 04:29:13;;;;;;;2.87;1.80;;;5.40;99.90;;;6.22;100.00;98871.53;5000317;28;20568;-80
2022/10/12 04:31:42;;;;;;;8.30;1.80;;;5.40;99.90;;;6.20;100.00;98870.88;4999130;28;20485;-81
2022/10/12 04:34:12;;;;;;;2.33;1.50;;;5.50;99.90;;;6.21;100.00;98867.31;5001467;28;20452;-81
2022/10/12 04:36:41;;;;;;;5.10;1.40;;;5.50;99.90;;;6.21;100.00;98875.94;5005080;28;20526;-81
2022/10/12 04:39:09;;;;;;;4.80;2.03;;;5.50;99.90;;;6.23;100.00;98879.22;5005080;28;20573;-80
2022/10/12 04:41:38;;;;;;;2.70;1.80;;;5.50;99.90;;;6.28;100.00;98879.59;5002770;28;20486;-80
2022/10/12 04:44:08;;;;;;;3.50;1.60;;;5.50;99.90;;;6.28;100.00;98871.00;5004735;28;20485;-81
2022/10/12 04:46:38;;;;;;;4.73;1.87;;;5.40;99.90;;;6.29;100.00;98876.03;5004138;28;20533;-81
2022/10/12 04:49:06;;;;;;;5.30;2.47;;;5.50;99.90;;;6.30;100.00;98869.91;5004577;28;20517;-81
2022/10/12 04:51:37;;;;;;;4.83;2.07;;;5.40;99.90;;;6.29;100.00;98868.25;5005718;28;20518;-80
2022/10/12 04:54:06;;;;;;;5.00;1.60;;;5.50;99.90;;;6.28;100.00;98869.19;5004037;28;20954;-81
2022/10/12 04:56:35;;;;;;;3.73;1.60;;;5.40;99.90;;;6.29;100.00;98870.84;5004949;28;20451;-80
2022/10/12 04:59:04;;;;;;;6.30;1.50;;;5.40;99.90;;;6.31;100.00;98878.50;5004174;28;20986;-80
2022/10/12 05:01:32;;;;;;;3.67;2.10;;;5.50;99.90;;;6.30;100.00;98869.91;5004394;28;20537;-80
2022/10/12 05:04:01;;;;;;;2.90;1.40;;;5.50;99.90;;;6.26;100.00;98865.94;5004091;28;20492;-81
2022/10/12 05:06:31;;;;;;;3.43;2.00;;;5.40;99.90;;;6.35;100.00;98877.28;5004795;28;20473;-80
2022/10/12 05:09:01;;;;;;;4.27;1.50;;;5.50;99.90;;;6.38;100.00;98864.00;5001717;28;20507;-81
2022/10/12 05:11:30;;;;;;;2.17;1.60;;;5.50;99.90;;;6.41;100.00;98872.34;5002402;28;20576;-80
2022/10/12 05:13:59;;;;;;;2.73;1.70;;;5.50;99.90;;;6.43;100.00;98865.22;5003696;28;20463;-81
2022/10/12 05:16:27;;;;;;;4.10;1.67;;;5.60;99.90;;;6.42;100.00;98863.56;5002048;28;21061;-81
2022/10/12 05:18:57;;;;;;;5.13;1.97;;;5.60;99.90;;;6.47;100.00;98858.78;5002116;28;20458;-85
2022/10/12 05:21:27;;;;;;;7.60;2.17;;;5.60;99.90;;;6.50;100.00;98855.91;5002417;28;20478;-81
2022/10/12 05:23:55;;;;;;;2.97;1.80;;;5.70;99.90;;;6.53;100.00;98860.81;5004712;28;20453;-81
2022/10/12 05:26:25;;;;;;;5.70;1.97;;;5.70;99.90;;;6.54;100.00;98857.25;5003652;28;21015;-81
2022/10/12 05:28:54;;;;;;;5.10;2.40;;;5.70;99.90;;;6.58;100.00;98858.63;5002308;28;20482;-80
2022/10/12 05:31:23;;;;;;;5.00;2.20;;;5.70;99.90;;;6.59;100.00;98862.03;5002274;28;20573;-81
2022/10/12 05:33:51;;;;;;;5.60;1.93;;;5.70;99.90;;;6.58;100.00;98858.63;5002232;28;20455;-80
2022/10/12 05:36:20;;;;;;;4.33;2.33;;;5.70;99.90;;;6.61;100.00;98857.50;5003772;28;20458;-81
2022/10/12 05:38:49;;;;;;;2.60;2.07;;;5.80;99.90;;;6.63;100.00;98855.56;5003946;28;21122;-80
2022/10/12 05:41:18;;;;;;;3.63;1.90;;;5.90;99.90;;;6.66;100.00;98849.31;5008212;28;20569;-80
2022/10/12 05:43:48;;;;;;;12.03;2.50;;;5.90;99.90;;;6.68;100.00;98849.97;5009503;28;20506;-81
2022/10/12 05:46:18;;;;;;;16.50;1.87;;;5.90;99.90;;;6.68;100.00;98855.97;5007502;28;20443;-81
2022/10/12 05:48:46;;;;;;;2.20;1.50;;;5.80;99.90;;;6.66;100.00;98851.91;5007112;28;20482;-81
2022/10/12 05:51:15;;;;;;;1.67;1.40;;;5.80;99.90;;;6.64;100.00;98853.81;5008153;28;20529;-80
2022/10/12 05:53:44;;;;;;;9.97;2.20;;;5.80;99.90;;;6.68;100.00;98855.97;5007572;28;21001;-81
2022/10/12 05:56:12;;;;;;;3.27;1.83;;;5.80;99.90;;;6.74;100.00;98854.59;5007727;28;20486;-81
2022/10/12 05:58:42;;;;;;;17.20;2.40;;;5.90;99.90;;;6.76;100.00;98861.28;5007347;28;20473;-81
2022/10/12 06:01:14;;;;;;;4.30;2.37;;;5.90;99.90;;;6.76;100.00;98865.66;5006812;28;20969;-80
2022/10/12 06:03:43;;;;;;;4.83;2.90;;;6.00;99.90;;;6.79;100.00;98857.59;5008936;28;20455;-81
2022/10/12 06:06:12;;;;;;;9.20;2.03;;;6.00;99.90;;;6.79;100.00;98863.59;5005478;28;20535;-81
2022/10/12 06:08:40;;;;;;;2.60;2.07;;;6.00;99.90;;;6.83;100.00;98861.53;5006278;28;20505;-81
2022/10/12 06:11:09;;;;;;;5.40;2.40;;;6.00;99.90;;;6.78;100.00;98869.75;5006525;28;20589;-80
2022/10/12 06:13:38;;;;;;;4.87;2.10;;;5.90;99.90;;;6.80;100.00;98873.06;5004968;28;20558;-80
2022/10/12 06:16:07;;;;;;;3.50;2.50;;;5.90;99.90;;;6.83;100.00;98861.53;5004392;28;20447;-80
2022/10/12 06:18:37;;;;;;;7.63;2.70;;;6.00;99.90;;;6.86;100.00;98872.47;5008745;28;20533;-81
2022/10/12 06:21:07;;;;;;;5.93;2.80;;;6.00;99.90;;;6.89;100.00;98860.97;5006670;28;20443;-81
2022/10/12 06:23:57;;;;;;;5.77;2.97;;;6.00;99.90;;;6.91;100.00;98859.03;5005393;28;20439;-81
2022/10/12 06:26:28;;;;;;;3.47;2.43;;;6.10;99.90;;;6.97;100.00;98869.69;5005109;28;20509;-81
2022/10/12 06:28:59;;;;;;;4.00;2.40;;;6.10;99.90;;;6.98;100.00;98862.69;5007257;28;20488;-81
2022/10/12 06:31:28;;;;;;;7.73;2.90;;;6.20;99.90;;;7.03;100.00;98863.91;5007141;28;20490;-80
2022/10/12 06:33:58;;;;;;;5.67;2.40;;;6.20;99.90;;;7.06;100.00;98863.63;5006465;28;20474;-80
2022/10/12 06:36:27;;;;;;;2.23;1.90;;;6.20;99.90;;;7.08;100.00;98850.44;5003082;28;20483;-80
2022/10/12 06:38:55;;;;;;;3.47;2.13;;;6.30;99.90;;;7.11;100.00;98857.16;5004064;28;20452;-81
2022/10/12 06:41:24;;;;;;;15.03;2.70;;;6.30;99.90;;;7.13;100.00;98863.03;5003078;28;20918;-81
2022/10/12 06:43:54;;;;;;;6.33;2.67;;;6.40;99.90;;;7.18;100.00;98861.66;5005027;28;20973;-80
2022/10/12 06:46:23;;;;;;;8.87;2.77;;;6.40;99.90;;;7.19;100.00;98868.47;5005335;28;20462;-80
2022/10/12 06:48:52;;;;;;;6.43;2.57;;;6.40;99.90;;;7.21;100.00;98865.75;5007525;28;20467;-81
2022/10/12 06:51:23;;;;;;;6.50;2.40;;;6.40;99.90;;;7.23;100.00;98864.63;5006870;28;20581;-81
2022/10/12 06:53:55;;;;;;;3.07;1.90;;;6.40;99.90;;;7.27;100.00;98865.16;5006340;28;20468;-80
2022/10/12 06:56:24;;;;;;;6.23;2.37;;;6.50;99.90;;;7.32;100.00;98873.34;5006841;28;20447;-80
2022/10/12 06:58:57;;;;;;;11.33;2.40;;;6.50;99.90;;;7.34;100.00;98868.81;5006961;28;20443;-81
2022/10/12 07:01:26;;;;;;;8.50;2.53;;;6.50;99.90;;;7.36;100.00;98865.09;5004232;28;20462;-81
2022/10/12 07:03:55;;;;;;;12.20;3.30;;;6.60;99.90;;;7.40;100.00;98868.22;5004806;28;20479;-81
2022/10/12 07:06:29;;;;;;;14.07;7.20;;;6.60;99.90;;;7.42;100.00;98872.31;5005134;28;20554;-81
2022/10/12 07:09:00;;;;;;;16.70;8.13;;;6.60;99.90;;;7.45;100.00;98874.63;5003579;28;20451;-80
2022/10/12 07:11:29;;;;;;;5.90;3.93;;;6.70;99.90;;;7.47;100.00;98870.09;5003682;28;20491;-81
2022/10/12 07:13:58;;;;;;;6.67;3.37;;;6.70;99.90;;;7.51;100.00;98875.81;5002801;28;20548;-81
2022/10/12 07:16:27;;;;;;;5.90;3.20;;;6.70;99.90;;;7.55;100.00;98874.56;5005614;28;20856;-81
2022/10/12 07:18:57;;;;;;;8.40;3.13;;;6.70;99.90;;;7.62;100.00;98874.78;5004778;28;20451;-81
2022/10/12 07:21:25;;;;;;;9.53;2.20;;;6.80;99.90;;;7.66;100.00;98870.94;5006184;28;21013;-81
2022/10/12 07:23:56;;;;;;;8.33;2.83;;;6.90;99.90;;;7.72;100.00;98881.56;5005471;28;21359;-81
2022/10/12 07:26:25;;;;;;;5.30;2.70;;;7.00;99.90;;;7.78;100.00;98882.75;5005310;28;20979;-81
2022/10/12 07:28:54;;;;;;;5.53;2.80;;;7.00;99.90;;;7.79;100.00;98881.78;5006885;28;20995;-80
2022/10/12 07:31:23;;;;;;;9.53;2.63;;;7.00;99.90;;;7.85;100.00;98891.59;5004793;28;20925;-80
2022/10/12 07:33:52;;;;;;;4.80;2.60;;;7.10;99.90;;;7.92;100.00;98890.03;5006413;28;20475;-81
2022/10/12 07:36:20;;;;;;;5.43;2.00;;;7.10;99.90;;;7.99;100.00;98893.69;5006208;28;20493;-80
2022/10/12 07:38:50;;;;;;;7.10;2.27;;;7.20;99.90;;;8.04;100.00;98892.28;5004995;28;20441;-80
2022/10/12 07:41:20;;;;;;;4.03;2.20;;;7.30;99.90;;;8.06;100.00;98889.50;5002689;28;20541;-81
2022/10/12 07:43:54;;;;;;;3.27;2.40;;;7.30;99.90;;;8.06;100.00;98879.09;5002847;28;20513;-80
2022/10/12 07:46:24;;;;;;;5.77;3.37;;;7.30;99.90;;;8.09;100.00;98884.81;5003316;28;20447;-80
2022/10/12 07:48:53;;;;;;;2.83;1.90;;;7.30;99.90;;;8.09;100.00;98878.78;5005492;28;20478;-80
2022/10/12 07:51:22;;;;;;;4.57;2.47;;;7.40;99.90;;;8.12;100.00;98885.50;5002460;28;20495;-81
2022/10/12 07:53:51;;;;;;;7.40;1.70;;;7.50;99.90;;;8.15;100.00;98870.38;5003350;28;20467;-80
2022/10/12 07:56:21;;;;;;;7.03;2.60;;;7.40;99.90;;;8.15;100.00;98866.97;5000767;28;20553;-76
2022/10/12 07:58:51;;;;;;;6.07;2.50;;;7.40;99.90;;;8.15;100.00;98873.00;5001614;28;20478;-77
2022/10/12 08:01:22;;;;;;;10.00;2.80;;;7.40;99.90;;;8.16;100.00;98869.41;5001208;28;20452;-77
2022/10/12 08:03:52;;;;;;;2.93;1.93;;;7.40;99.90;;;8.20;100.00;98864.69;5000535;28;20461;-81
2022/10/12 08:06:30;;;;;;;7.77;2.00;;;7.50;99.90;;;8.25;100.00;98873.72;5000822;28;20545;-80
2022/10/12 08:09:01;;;;;;;4.50;2.23;;;7.60;99.90;;;8.27;100.00;98879.59;4998696;28;20484;-80
2022/10/12 08:11:31;;;;;;;4.50;1.60;;;7.60;99.90;;;8.32;100.00;98877.38;4997235;28;20501;-81
2022/10/12 08:13:59;;;;;;;3.40;2.20;;;7.60;99.90;;;8.39;100.00;98875.81;5000003;28;20483;-81
2022/10/12 08:16:28;;;;;;;2.93;1.90;;;7.70;99.90;;;8.48;100.00;98874.06;5004071;28;20459;-80
2022/10/12 08:18:56;;;;;;;2.77;2.30;;;7.80;99.90;;;8.55;100.00;98868.09;5003133;28;20464;-80
2022/10/12 08:21:25;;;;;;;6.80;2.20;;;7.90;99.90;;;8.63;100.00;98872.53;5005095;28;20483;-81
2022/10/12 08:23:55;;;;;;;6.33;2.40;;;8.00;99.90;;;8.70;100.00;98877.94;5005234;28;20530;-81
2022/10/12 08:26:23;;;;;;;6.50;2.20;;;7.90;99.90;;;8.77;100.00;98881.56;5005621;28;20501;-80
2022/10/12 08:28:54;;;;;;;6.00;2.10;;;8.10;99.90;;;8.83;100.00;98879.16;5004427;28;20455;-81
2022/10/12 08:31:23;;;;;;;8.07;2.60;;;8.20;99.90;;;8.90;100.00;98879.34;5003837;28;20457;-81
2022/10/12 08:33:51;;;;;;;4.00;2.40;;;8.30;99.90;;;8.97;100.00;98875.16;5003801;28;20621;-80
2022/10/12 08:36:21;;;;;;;6.93;2.67;;;8.30;99.90;;;9.06;100.00;98884.63;5002968;28;20463;-80
2022/10/12 08:38:52;;;;;;;5.37;2.37;;;8.50;99.90;;;9.12;100.00;98881.41;5004969;28;20447;-81
2022/10/12 08:41:39;;;;;;;14.53;3.20;;;8.60;99.90;;;9.20;100.00;98878.81;5004052;28;20505;-80
2022/10/12 08:44:39;;;;;;;3.70;2.40;;;8.70;99.90;;;9.29;100.00;98877.88;5004399;28;20536;-81
2022/10/12 08:47:16;;;;;;;12.10;2.40;;;8.80;99.90;;;9.36;100.00;98878.91;5004864;28;20486;-81
2022/10/12 08:49:47;;;;;;;12.60;2.60;;;8.90;99.90;;;9.42;100.00;98873.03;5005944;28;20516;-81
2022/10/12 08:52:28;;;;;;;11.43;2.77;;;9.00;99.90;;;9.51;100.00;98866.84;5001940;28;21478;-81
2022/10/12 08:55:05;;;;;;;6.43;2.73;;;9.10;99.90;;;9.60;100.00;98865.91;5003533;28;20443;-81
2022/10/12 08:57:34;;;;;;;10.20;2.40;;;9.20;99.90;;;9.70;100.00;98864.91;5000942;28;21031;-80
2022/10/12 09:00:09;;;;;;;6.80;2.60;;;9.30;99.90;;;9.76;100.00;98864.28;5003812;28;20899;-80
2022/10/12 09:02:58;;;;;;;15.27;2.30;;;9.40;99.90;;;9.84;100.00;98866.91;5005092;28;20466;-80
2022/10/12 09:05:35;;;;;;;3.60;2.03;;;9.50;99.90;;;9.91;100.00;98870.50;5002747;28;20984;-80
2022/10/12 09:08:14;;;;;;;9.27;2.07;;;9.60;99.90;;;9.99;100.00;98854.84;5003864;28;20501;-81
2022/10/12 09:10:49;;;;;;;5.67;2.30;;;9.60;99.90;;;10.10;100.00;98859.72;5004020;28;20561;-81
2022/10/12 09:13:41;;;;;;;12.83;2.30;;;9.70;99.90;;;10.19;100.00;98858.78;5002841;28;20577;-80
2022/10/12 09:16:24;;;;;;;7.33;2.10;;;9.80;99.90;;;10.28;100.00;98855.16;5002738;28;20487;-81
2022/10/12 09:18:57;;;;;;;15.20;2.43;;;9.90;99.90;;;10.36;100.00;98852.56;5004830;28;20460;-81
2022/10/12 09:21:31;;;;;;;2.70;1.90;;;10.00;99.90;;;10.44;100.00;98860.41;5003628;28;20964;-81
2022/10/12 09:24:01;;;;;;;4.67;1.93;;;10.00;99.90;;;10.53;100.00;98859.38;5004332;28;20459;-81
2022/10/12 09:26:36;;;;;;;7.00;1.90;;;10.10;99.90;;;10.63;100.00;98855.75;5004380;28;20549;-81
2022/10/12 09:29:27;;;;;;;8.83;2.13;;;10.20;99.90;;;10.71;100.00;98848.72;5005320;28;20474;-80
2022/10/12 09:32:23;;;;;;;8.00;2.20;;;10.30;99.90;;;10.78;100.00;98854.09;5005133;28;20887;-80
2022/10/12 09:34:53;;;;;;;7.13;2.40;;;10.40;99.90;;;10.86;100.00;98849.66;5005188;28;20489;-81
2022/10/12 09:37:26;;;;;;;10.00;1.90;;;10.50;99.90;;;10.92;100.00;98848.16;5006120;28;20439;-81
2022/10/12 09:39:57;;;;;;;13.80;3.13;;;10.50;99.90;;;11.01;100.00;98849.75;5005526;28;20487;-81
2022/10/12 09:42:26;;;;;;;6.60;2.03;;;10.60;99.90;;;11.08;100.00;98856.75;5001656;28;20481;-80
2022/10/12 09:45:02;;;;;;;3.90;1.90;;;10.60;99.90;;;11.16;100.00;98852.47;5004561;28;20448;-80
2022/10/12 09:47:33;;;;;;;8.40;2.30;;;10.70;99.90;;;11.22;100.00;98850.00;5003019;28;20439;-80
2022/10/12 09:50:05;;;;;;;6.70;2.20;;;10.90;99.90;;;11.29;100.00;98848.31;5005131;28;20980;-81
2022/10/12 09:52:44;;;;;;;7.50;2.77;;;10.90;99.90;;;11.36;100.00;98854.50;5004353;28;21127;-80
2022/10/12 09:55:25;;;;;;;4.93;2.03;;;11.00;99.90;;;11.43;100.00;98850.22;5004085;28;20450;-81
2022/10/12 09:57:59;;;;;;;3.73;2.10;;;11.00;99.90;;;11.49;100.00;98854.75;5006813;28;20489;-80
2022/10/12 10:00:30;;;;;;;3.90;2.03;;;11.10;99.90;;;11.55;100.00;98848.84;5007015;28;20897;-80
2022/10/12 10:03:02;;;;;;;11.07;2.40;;;11.10;99.90;;;11.63;100.00;98849.78;5006080;28;20554;-81
2022/10/12 10:05:34;;;;;;;8.50;2.30;;;11.10;99.90;;;11.70;100.00;98846.28;5007729;28;20965;-81
2022/10/12 10:08:19;;;;;;;5.20;2.23;;;11.20;99.90;;;11.75;100.00;98843.16;5006705;28;20550;-80
2022/10/12 10:10:51;;;;;;;4.70;1.83;;;11.20;99.90;;;11.81;100.00;98838.03;5006685;28;20540;-80
2022/10/12 10:13:23;;;;;;;7.43;2.30;;;11.30;99.90;;;11.85;100.00;98833.25;5008337;28;20573;-80
2022/10/12 10:16:06;;;;;;;6.10;2.00;;;11.40;99.90;;;11.93;100.00;98825.34;5007244;28;20483;-80
2022/10/12 10:18:41;;;;;;;9.00;2.33;;;11.40;99.90;;;11.97;100.00;98827.44;5006253;28;20523;-80
2022/10/12 10:21:15;;;;;;;7.80;3.03;;;11.50;99.90;;;12.06;100.00;98822.94;5006262;28;20438;-80
2022/10/12 10:23:51;;;;;;;7.70;2.40;;;11.70;99.90;;;12.10;100.00;98825.03;5006662;28;21856;-80
2022/10/12 10:26:26;;;;;;;6.97;2.23;;;11.80;99.90;;;12.15;100.00;98823.69;5005480;28;20546;-80
2022/10/12 10:29:16;;;;;;;5.83;2.63;;;11.80;99.90;;;12.22;100.00;98825.41;5007683;28;20459;-81
2022/10/12 10:31:47;;;;;;;3.80;2.10;;;11.90;99.90;;;12.28;100.00;98824.72;5005291;28;20969;-81
2022/10/12 10:34:26;;;;;;;6.00;2.30;;;11.90;99.90;;;12.36;100.00;98822.00;5006332;28;20935;-80
2022/10/12 10:36:57;;;;;;;3.83;2.60;;;11.90;99.90;;;12.43;100.00;98819.47;5004942;28;20531;-80
2022/10/12 10:39:32;;;;;;;4.87;1.87;;;12.10;99.90;;;12.49;100.00;98816.16;5006338;28;20458;-80
2022/10/12 10:42:12;;;;;;;2.73;1.80;;;12.10;99.90;;;12.51;100.00;98814.97;5003036;28;20491;-80
2022/10/12 10:44:50;;;;;;;8.80;2.50;;;12.10;99.90;;;12.55;100.00;98816.25;5005553;28;20522;-80
2022/10/12 10:47:20;;;;;;;8.30;2.63;;;12.20;99.90;;;12.58;100.00;98813.25;5007016;28;21258;-80